createdAt,value
2018-03-15T00:00:18.355Z,0.00
2018-03-15T00:01:18.364Z,0.00
2018-03-15T00:02:18.366Z,0.00
2018-03-15T00:03:18.379Z,0.00
2018-03-15T00:04:18.384Z,0.00
2018-03-15T00:05:18.386Z,0.00
2018-03-15T00:06:18.396Z,0.00
2018-03-15T00:07:18.401Z,0.00
2018-03-15T00:08:18.408Z,0.00
2018-03-15T00:09:18.413Z,0.00
2018-03-15T00:10:18.439Z,0.00
2018-03-15T00:11:18.424Z,0.00
2018-03-15T00:12:18.431Z,0.00
2018-03-15T00:13:18.437Z,0.00
2018-03-15T00:14:18.443Z,0.00
2018-03-15T00:15:18.472Z,0.00
2018-03-15T00:16:18.477Z,0.00
2018-03-15T00:17:18.466Z,0.00
2018-03-15T00:18:18.470Z,0.00
2018-03-15T00:19:18.474Z,0.00
2018-03-15T00:20:18.484Z,0.00
2018-03-15T00:21:18.490Z,0.00
2018-03-15T00:22:18.502Z,0.00
2018-03-15T00:23:18.504Z,0.00
2018-03-15T00:24:18.509Z,0.00
2018-03-15T00:25:18.513Z,0.00
2018-03-15T00:26:18.531Z,0.00
2018-03-15T00:27:18.530Z,0.00
2018-03-15T00:28:18.540Z,0.00
2018-03-15T00:29:18.543Z,0.00
2018-03-15T00:30:18.545Z,0.00
2018-03-15T00:31:18.554Z,0.00
2018-03-15T00:32:18.562Z,0.00
2018-03-15T00:33:18.565Z,0.00
2018-03-15T00:34:18.574Z,0.00
2018-03-15T00:35:18.579Z,0.00
2018-03-15T00:36:18.586Z,0.00
2018-03-15T00:37:18.597Z,0.00
2018-03-15T00:38:18.596Z,0.00
2018-03-15T00:39:18.604Z,0.00
2018-03-15T00:40:18.623Z,0.00
2018-03-15T00:41:18.625Z,0.00
2018-03-15T00:42:18.623Z,0.00
2018-03-15T00:43:18.628Z,0.00
2018-03-15T00:44:18.636Z,0.00
2018-03-15T00:45:18.642Z,0.00
2018-03-15T00:46:18.657Z,0.00
2018-03-15T00:47:18.657Z,0.00
2018-03-15T00:48:18.661Z,0.00
2018-03-15T00:49:18.668Z,0.00
2018-03-15T00:50:18.673Z,0.00
2018-03-15T00:51:18.689Z,0.00
2018-03-15T00:52:18.695Z,0.00
2018-03-15T00:53:18.692Z,0.00
2018-03-15T00:54:18.701Z,0.00
2018-03-15T00:55:18.703Z,0.00
2018-03-15T00:56:18.708Z,0.00
2018-03-15T00:57:18.716Z,0.00
2018-03-15T00:58:18.728Z,0.00
2018-03-15T00:59:18.729Z,0.00
2018-03-15T01:00:18.737Z,0.00
2018-03-15T01:01:18.745Z,0.00
2018-03-15T01:02:18.748Z,0.00
2018-03-15T01:03:18.754Z,0.00
2018-03-15T01:04:18.769Z,0.00
2018-03-15T01:05:18.769Z,0.00
2018-03-15T01:06:18.776Z,0.00
2018-03-15T01:07:18.777Z,0.00
2018-03-15T01:08:18.784Z,0.00
2018-03-15T01:09:18.791Z,0.00
2018-03-15T01:10:18.801Z,0.00
2018-03-15T01:11:18.806Z,0.00
2018-03-15T01:12:18.816Z,0.00
2018-03-15T01:13:18.815Z,0.00
2018-03-15T01:14:18.822Z,0.00
2018-03-15T01:15:18.829Z,0.00
2018-03-15T01:16:18.836Z,0.00
2018-03-15T01:17:18.845Z,0.00
2018-03-15T01:18:18.845Z,0.00
2018-03-15T01:19:18.850Z,0.00
2018-03-15T01:20:18.859Z,0.00
2018-03-15T01:21:18.864Z,0.00
2018-03-15T01:22:18.877Z,0.00
2018-03-15T01:23:18.881Z,0.00
2018-03-15T01:24:18.884Z,0.00
2018-03-15T01:25:18.893Z,0.00
2018-03-15T01:26:18.895Z,0.00
2018-03-15T01:27:18.903Z,0.00
2018-03-15T01:28:18.908Z,0.00
2018-03-15T01:29:18.918Z,0.00
2018-03-15T01:30:18.918Z,0.00
2018-03-15T01:31:18.929Z,0.00
2018-03-15T01:32:18.934Z,0.00
2018-03-15T01:33:18.937Z,0.00
2018-03-15T01:34:18.945Z,0.00
2018-03-15T01:35:18.964Z,0.00
2018-03-15T01:36:18.959Z,0.00
2018-03-15T01:37:18.967Z,0.00
2018-03-15T01:38:18.970Z,0.00
2018-03-15T01:39:18.978Z,0.00
2018-03-15T01:40:18.983Z,0.00
2018-03-15T01:41:18.996Z,0.00
2018-03-15T01:42:18.997Z,0.00
2018-03-15T01:43:19.000Z,0.00
2018-03-15T01:44:19.011Z,0.00
2018-03-15T01:45:19.020Z,0.00
2018-03-15T01:46:19.019Z,0.00
2018-03-15T01:47:19.033Z,0.00
2018-03-15T01:48:19.034Z,0.00
2018-03-15T01:49:19.041Z,0.00
2018-03-15T01:50:19.052Z,0.00
2018-03-15T01:51:19.059Z,0.00
2018-03-15T01:52:19.063Z,0.00
2018-03-15T01:53:19.074Z,0.00
2018-03-15T01:54:19.072Z,0.00
2018-03-15T01:55:19.077Z,0.00
2018-03-15T01:56:19.085Z,0.00
2018-03-15T01:57:19.091Z,0.00
2018-03-15T01:58:19.106Z,0.00
2018-03-15T01:59:19.120Z,0.00
2018-03-15T02:00:19.109Z,0.00
2018-03-15T02:01:19.122Z,0.00
2018-03-15T02:02:19.126Z,0.00
2018-03-15T02:03:19.139Z,0.00
2018-03-15T02:04:19.142Z,0.00
2018-03-15T02:05:19.150Z,0.00
2018-03-15T02:06:19.152Z,0.00
2018-03-15T02:07:19.155Z,0.00
2018-03-15T02:08:19.168Z,0.00
2018-03-15T02:09:19.173Z,0.00
2018-03-15T02:10:19.180Z,0.00
2018-03-15T02:11:19.192Z,0.00
2018-03-15T02:12:19.189Z,0.00
2018-03-15T02:13:19.203Z,0.00
2018-03-15T02:14:19.203Z,0.00
2018-03-15T02:15:19.208Z,0.00
2018-03-15T02:16:19.215Z,0.00
2018-03-15T02:17:19.234Z,0.00
2018-03-15T02:18:19.232Z,0.00
2018-03-15T02:19:19.240Z,0.00
2018-03-15T02:20:19.249Z,0.00
2018-03-15T02:21:19.248Z,0.00
2018-03-15T02:22:19.257Z,0.00
2018-03-15T02:23:19.262Z,0.00
2018-03-15T02:24:19.269Z,0.00
2018-03-15T02:25:19.284Z,0.00
2018-03-15T02:26:19.282Z,0.00
2018-03-15T02:27:19.290Z,0.00
2018-03-15T02:28:19.303Z,0.00
2018-03-15T02:29:19.306Z,0.00
2018-03-15T02:30:19.309Z,0.00
2018-03-15T02:31:19.326Z,0.00
2018-03-15T02:32:19.322Z,0.00
2018-03-15T02:33:19.346Z,0.00
2018-03-15T02:34:19.338Z,0.00
2018-03-15T02:35:19.343Z,0.00
2018-03-15T02:36:19.348Z,0.00
2018-03-15T02:37:19.359Z,0.00
2018-03-15T02:38:19.368Z,0.00
2018-03-15T02:39:19.379Z,0.00
2018-03-15T02:40:19.374Z,0.00
2018-03-15T02:41:19.382Z,0.00
2018-03-15T02:42:19.386Z,0.00
2018-03-15T02:43:19.393Z,0.00
2018-03-15T02:44:19.412Z,0.00
2018-03-15T02:45:19.408Z,0.00
2018-03-15T02:46:19.414Z,0.00
2018-03-15T02:47:19.420Z,0.00
2018-03-15T02:48:19.432Z,0.00
2018-03-15T02:49:19.440Z,0.00
2018-03-15T02:50:19.441Z,0.00
2018-03-15T02:51:19.447Z,0.00
2018-03-15T02:52:19.457Z,0.00
2018-03-15T02:53:19.460Z,0.00
2018-03-15T02:54:19.486Z,0.00
2018-03-15T02:55:19.477Z,0.00
2018-03-15T02:56:19.484Z,0.00
2018-03-15T02:57:19.496Z,0.00
2018-03-15T02:58:19.493Z,0.00
2018-03-15T02:59:19.501Z,0.00
2018-03-15T03:00:19.516Z,0.00
2018-03-15T03:01:19.512Z,0.00
2018-03-15T03:02:19.521Z,0.00
2018-03-15T03:03:19.527Z,0.00
2018-03-15T03:04:19.534Z,0.00
2018-03-15T03:05:19.542Z,0.00
2018-03-15T03:06:19.563Z,0.00
2018-03-15T03:07:19.553Z,0.00
2018-03-15T03:08:19.561Z,0.00
2018-03-15T03:09:19.567Z,0.00
2018-03-15T03:10:19.569Z,0.00
2018-03-15T03:11:19.577Z,0.00
2018-03-15T03:12:19.592Z,0.00
2018-03-15T03:13:19.598Z,0.00
2018-03-15T03:14:19.603Z,0.00
2018-03-15T03:15:19.602Z,0.00
2018-03-15T03:16:19.611Z,0.00
2018-03-15T03:17:19.619Z,0.00
2018-03-15T03:18:19.629Z,0.00
2018-03-15T03:19:19.652Z,0.00
2018-03-15T03:20:19.637Z,0.00
2018-03-15T03:21:19.644Z,0.00
2018-03-15T03:22:19.649Z,0.00
2018-03-15T03:23:19.659Z,0.00
2018-03-15T03:24:19.676Z,0.00
2018-03-15T03:25:19.673Z,0.00
2018-03-15T03:26:19.678Z,0.00
2018-03-15T03:27:19.686Z,0.00
2018-03-15T03:28:19.694Z,0.00
2018-03-15T03:29:19.696Z,0.00
2018-03-15T03:30:19.714Z,0.00
2018-03-15T03:31:19.712Z,0.00
2018-03-15T03:32:19.719Z,0.00
2018-03-15T03:33:19.723Z,0.00
2018-03-15T03:34:19.736Z,0.00
2018-03-15T03:35:19.735Z,0.00
2018-03-15T03:36:19.759Z,0.00
2018-03-15T03:37:19.756Z,0.00
2018-03-15T03:38:19.755Z,0.00
2018-03-15T03:39:19.769Z,0.00
2018-03-15T03:40:19.770Z,0.00
2018-03-15T03:41:19.779Z,0.00
2018-03-15T03:42:19.788Z,0.00
2018-03-15T03:43:19.800Z,0.00
2018-03-15T03:44:19.801Z,0.00
2018-03-15T03:45:19.805Z,0.00
2018-03-15T03:46:19.813Z,0.00
2018-03-15T03:47:19.817Z,0.00
2018-03-15T03:48:19.826Z,0.00
2018-03-15T03:49:19.843Z,0.00
2018-03-15T03:50:19.839Z,0.00
2018-03-15T03:51:19.844Z,0.00
2018-03-15T03:52:19.851Z,0.00
2018-03-15T03:53:19.857Z,0.00
2018-03-15T03:54:19.865Z,0.00
2018-03-15T03:55:19.874Z,0.00
2018-03-15T03:56:19.878Z,0.00
2018-03-15T03:57:19.893Z,0.00
2018-03-15T03:58:19.893Z,0.00
2018-03-15T03:59:19.909Z,0.00
2018-03-15T04:00:19.908Z,0.00
2018-03-15T04:01:19.919Z,0.00
2018-03-15T04:02:19.928Z,0.00
2018-03-15T04:03:19.937Z,0.00
2018-03-15T04:04:19.938Z,0.00
2018-03-15T04:05:19.943Z,0.00
2018-03-15T04:06:19.947Z,0.00
2018-03-15T04:07:19.952Z,0.00
2018-03-15T04:08:19.973Z,0.00
2018-03-15T04:09:19.965Z,0.00
2018-03-15T04:10:19.973Z,0.00
2018-03-15T04:11:19.980Z,0.00
2018-03-15T04:12:19.986Z,0.00
2018-03-15T04:13:19.993Z,0.00
2018-03-15T04:14:20.005Z,0.00
2018-03-15T04:15:20.005Z,0.00
2018-03-15T04:16:20.014Z,0.00
2018-03-15T04:17:20.022Z,0.00
2018-03-15T04:18:20.025Z,0.00
2018-03-15T04:19:20.036Z,0.00
2018-03-15T04:20:20.051Z,0.00
2018-03-15T04:21:20.046Z,0.00
2018-03-15T04:22:20.055Z,0.00
2018-03-15T04:23:20.060Z,0.00
2018-03-15T04:24:20.074Z,0.00
2018-03-15T04:25:20.074Z,0.00
2018-03-15T04:26:20.087Z,0.00
2018-03-15T04:27:20.113Z,0.00
2018-03-15T04:28:20.129Z,0.00
2018-03-15T04:29:20.102Z,0.00
2018-03-15T04:30:20.106Z,0.00
2018-03-15T04:31:20.117Z,0.00
2018-03-15T04:32:20.129Z,0.00
2018-03-15T04:33:20.131Z,0.00
2018-03-15T04:34:20.145Z,0.00
2018-03-15T04:35:20.142Z,0.00
2018-03-15T04:36:20.151Z,0.00
2018-03-15T04:37:20.176Z,0.00
2018-03-15T04:38:20.162Z,0.00
2018-03-15T04:39:20.174Z,0.00
2018-03-15T04:40:20.178Z,0.00
2018-03-15T04:41:20.185Z,0.00
2018-03-15T04:42:20.191Z,0.00
2018-03-15T04:43:20.195Z,0.00
2018-03-15T04:44:20.226Z,0.00
2018-03-15T04:45:20.216Z,0.00
2018-03-15T04:46:20.222Z,0.00
2018-03-15T04:47:20.228Z,0.00
2018-03-15T04:48:20.232Z,0.00
2018-03-15T04:49:20.237Z,0.00
2018-03-15T04:50:20.244Z,0.00
2018-03-15T04:51:20.256Z,0.00
2018-03-15T04:52:20.254Z,0.00
2018-03-15T04:53:20.262Z,0.00
2018-03-15T04:54:20.284Z,0.00
2018-03-15T04:55:20.278Z,0.00
2018-03-15T04:56:20.284Z,0.00
2018-03-15T04:57:20.290Z,0.00
2018-03-15T04:58:20.303Z,0.00
2018-03-15T04:59:20.326Z,0.00
2018-03-15T05:00:20.310Z,0.00
2018-03-15T05:01:20.318Z,0.00
2018-03-15T05:02:20.327Z,0.00
2018-03-15T05:03:20.338Z,0.00
2018-03-15T05:04:20.344Z,0.00
2018-03-15T05:05:20.345Z,0.00
2018-03-15T05:06:20.354Z,0.00
2018-03-15T05:07:20.374Z,0.00
2018-03-15T05:08:20.363Z,4.00
2018-03-15T05:09:20.370Z,0.00
2018-03-15T05:10:20.395Z,4.00
2018-03-15T05:11:20.383Z,0.00
2018-03-15T05:12:20.393Z,4.00
2018-03-15T05:13:20.397Z,4.00
2018-03-15T05:14:20.405Z,4.00
2018-03-15T05:15:20.408Z,8.00
2018-03-15T05:16:20.422Z,8.00
2018-03-15T05:17:20.423Z,12.00
2018-03-15T05:18:20.433Z,16.00
2018-03-15T05:19:20.438Z,16.00
2018-03-15T05:20:20.443Z,24.00
2018-03-15T05:21:20.461Z,24.00
2018-03-15T05:22:20.459Z,32.00
2018-03-15T05:23:20.460Z,36.00
2018-03-15T05:24:20.469Z,44.00
2018-03-15T05:25:20.476Z,52.00
2018-03-15T05:26:20.481Z,68.00
2018-03-15T05:27:20.493Z,68.00
2018-03-15T05:28:20.496Z,84.00
2018-03-15T05:29:20.521Z,88.00
2018-03-15T05:30:20.513Z,104.00
2018-03-15T05:31:20.512Z,108.00
2018-03-15T05:32:20.527Z,116.00
2018-03-15T05:33:20.537Z,128.00
2018-03-15T05:34:20.536Z,140.00
2018-03-15T05:35:20.540Z,148.00
2018-03-15T05:36:20.546Z,168.00
2018-03-15T05:37:20.554Z,184.00
2018-03-15T05:38:20.604Z,196.00
2018-03-15T05:39:20.572Z,220.00
2018-03-15T05:40:20.595Z,236.00
2018-03-15T05:41:20.580Z,264.00
2018-03-15T05:42:20.590Z,288.00
2018-03-15T05:43:20.594Z,316.00
2018-03-15T05:44:20.598Z,336.00
2018-03-15T05:45:20.608Z,352.00
2018-03-15T05:46:20.611Z,376.00
2018-03-15T05:47:20.620Z,408.00
2018-03-15T05:48:20.622Z,420.00
2018-03-15T05:49:20.630Z,448.00
2018-03-15T05:50:20.636Z,484.00
2018-03-15T05:51:20.652Z,508.00
2018-03-15T05:52:20.651Z,520.00
2018-03-15T05:53:20.657Z,540.00
2018-03-15T05:54:20.670Z,556.00
2018-03-15T05:55:20.673Z,580.00
2018-03-15T05:56:20.677Z,612.00
2018-03-15T05:57:20.699Z,636.00
2018-03-15T05:58:20.703Z,672.00
2018-03-15T05:59:20.699Z,712.00
2018-03-15T06:00:20.707Z,740.00
2018-03-15T06:01:20.712Z,808.00
2018-03-15T06:02:20.715Z,848.00
2018-03-15T06:03:20.726Z,876.00
2018-03-15T06:04:20.734Z,948.00
2018-03-15T06:05:20.740Z,960.00
2018-03-15T06:06:20.745Z,944.00
2018-03-15T06:07:20.749Z,936.00
2018-03-15T06:08:20.758Z,936.00
2018-03-15T06:09:20.773Z,900.00
2018-03-15T06:10:20.769Z,880.00
2018-03-15T06:11:20.779Z,880.00
2018-03-15T06:12:20.782Z,896.00
2018-03-15T06:13:20.790Z,944.00
2018-03-15T06:14:20.819Z,992.00
2018-03-15T06:15:20.808Z,1040.00
2018-03-15T06:16:20.814Z,1152.00
2018-03-15T06:17:20.822Z,1220.00
2018-03-15T06:18:20.827Z,1184.00
2018-03-15T06:19:20.832Z,1172.00
2018-03-15T06:20:20.841Z,1212.00
2018-03-15T06:21:20.852Z,1268.00
2018-03-15T06:22:20.850Z,1320.00
2018-03-15T06:23:20.856Z,1352.00
2018-03-15T06:24:20.865Z,1540.00
2018-03-15T06:25:20.874Z,1568.00
2018-03-15T06:26:20.876Z,1568.00
2018-03-15T06:27:20.885Z,1636.00
2018-03-15T06:28:20.898Z,1676.00
2018-03-15T06:29:20.899Z,1708.00
2018-03-15T06:30:20.904Z,1820.00
2018-03-15T06:31:20.913Z,1964.00
2018-03-15T06:32:20.919Z,1968.00
2018-03-15T06:33:20.927Z,2056.00
2018-03-15T06:34:20.932Z,2008.00
2018-03-15T06:35:20.945Z,2176.00
2018-03-15T06:36:20.946Z,2080.00
2018-03-15T06:37:20.952Z,2152.00
2018-03-15T06:38:20.961Z,2080.00
2018-03-15T06:39:20.969Z,2184.00
2018-03-15T06:40:20.974Z,2372.00
2018-03-15T06:41:20.986Z,2496.00
2018-03-15T06:42:20.990Z,2596.00
2018-03-15T06:43:20.992Z,2620.00
2018-03-15T06:44:21.001Z,2788.00
2018-03-15T06:45:21.006Z,2816.00
2018-03-15T06:46:21.015Z,2996.00
2018-03-15T06:47:21.018Z,3072.00
2018-03-15T06:48:21.031Z,3140.00
2018-03-15T06:49:21.037Z,3320.00
2018-03-15T06:50:21.038Z,3388.00
2018-03-15T06:51:21.103Z,3428.00
2018-03-15T06:52:21.054Z,3764.00
2018-03-15T06:53:21.062Z,3852.00
2018-03-15T06:54:21.070Z,3784.00
2018-03-15T06:55:21.074Z,3608.00
2018-03-15T06:56:21.081Z,3572.00
2018-03-15T06:57:21.089Z,3652.00
2018-03-15T06:58:21.091Z,3548.00
2018-03-15T06:59:21.103Z,3488.00
2018-03-15T07:00:21.131Z,3476.00
2018-03-15T07:01:21.114Z,3552.00
2018-03-15T07:02:21.123Z,3548.00
2018-03-15T07:03:21.128Z,3616.00
2018-03-15T07:04:21.135Z,3664.00
2018-03-15T07:05:21.141Z,3744.00
2018-03-15T07:06:21.158Z,3676.00
2018-03-15T07:07:21.153Z,3620.00
2018-03-15T07:08:21.177Z,3524.00
2018-03-15T07:09:21.172Z,3472.00
2018-03-15T07:10:21.210Z,3492.00
2018-03-15T07:11:21.183Z,3400.00
2018-03-15T07:12:21.198Z,3300.00
2018-03-15T07:13:21.197Z,3352.00
2018-03-15T07:14:21.203Z,3596.00
2018-03-15T07:15:21.214Z,3600.00
2018-03-15T07:16:21.222Z,4036.00
2018-03-15T07:17:21.237Z,3956.00
2018-03-15T07:18:21.238Z,4392.00
2018-03-15T07:19:21.239Z,4752.00
2018-03-15T07:20:21.245Z,4736.00
2018-03-15T07:21:21.273Z,4876.00
2018-03-15T07:22:21.258Z,4848.00
2018-03-15T07:23:21.267Z,4668.00
2018-03-15T07:24:21.273Z,4568.00
2018-03-15T07:25:21.284Z,4560.00
2018-03-15T07:26:21.288Z,4408.00
2018-03-15T07:27:21.293Z,4388.00
2018-03-15T07:28:21.301Z,4508.00
2018-03-15T07:29:21.307Z,4540.00
2018-03-15T07:30:21.314Z,4632.00
2018-03-15T07:31:21.326Z,4688.00
2018-03-15T07:32:21.329Z,4464.00
2018-03-15T07:33:21.343Z,4276.00
2018-03-15T07:34:21.344Z,4260.00
2018-03-15T07:35:21.348Z,4136.00
2018-03-15T07:36:21.357Z,4212.00
2018-03-15T07:37:21.368Z,4260.00
2018-03-15T07:38:21.369Z,4480.00
2018-03-15T07:39:21.410Z,4852.00
2018-03-15T07:40:21.383Z,4756.00
2018-03-15T07:41:21.398Z,4856.00
2018-03-15T07:42:21.395Z,5144.00
2018-03-15T07:43:21.413Z,5512.00
2018-03-15T07:44:21.413Z,5536.00
2018-03-15T07:45:21.426Z,5384.00
2018-03-15T07:46:21.427Z,5184.00
2018-03-15T07:47:21.449Z,5380.00
2018-03-15T07:48:21.442Z,5648.00
2018-03-15T07:49:21.448Z,5780.00
2018-03-15T07:50:21.455Z,5572.00
2018-03-15T07:51:21.469Z,5780.00
2018-03-15T07:52:21.472Z,5700.00
2018-03-15T07:53:21.540Z,5916.00
2018-03-15T07:54:21.487Z,6004.00
2018-03-15T07:55:21.503Z,6004.00
2018-03-15T07:56:21.501Z,5940.00
2018-03-15T07:57:21.509Z,6016.00
2018-03-15T07:58:21.515Z,6148.00
2018-03-15T07:59:21.524Z,6204.00
2018-03-15T08:00:21.534Z,6436.00
2018-03-15T08:01:21.546Z,6372.00
2018-03-15T08:02:21.542Z,6352.00
2018-03-15T08:03:21.562Z,6412.00
2018-03-15T08:04:21.569Z,6884.00
2018-03-15T08:05:21.566Z,7328.00
2018-03-15T08:06:21.573Z,7800.00
2018-03-15T08:07:21.633Z,8016.00
2018-03-15T08:08:21.591Z,8184.00
2018-03-15T08:09:21.596Z,8084.00
2018-03-15T08:10:21.604Z,8176.00
2018-03-15T08:11:22.041Z,8036.00
2018-03-15T08:12:21.618Z,8012.00
2018-03-15T08:13:21.627Z,7680.00
2018-03-15T08:14:21.636Z,7712.00
2018-03-15T08:15:21.651Z,7676.00
2018-03-15T08:16:21.651Z,7784.00
2018-03-15T08:17:21.659Z,8232.00
2018-03-15T08:18:21.666Z,8444.00
2018-03-15T08:19:21.669Z,8396.00
2018-03-15T08:20:21.682Z,8328.00
2018-03-15T08:21:21.695Z,8392.00
2018-03-15T08:22:21.694Z,8412.00
2018-03-15T08:23:21.700Z,8436.00
2018-03-15T08:24:21.711Z,8200.00
2018-03-15T08:25:21.718Z,8492.00
2018-03-15T08:26:21.722Z,8896.00
2018-03-15T08:27:21.748Z,9136.00
2018-03-15T08:28:21.739Z,9376.00
2018-03-15T08:29:21.748Z,9528.00
2018-03-15T08:30:21.759Z,9360.00
2018-03-15T08:31:21.764Z,9036.00
2018-03-15T08:32:21.773Z,9392.00
2018-03-15T08:33:21.829Z,9340.00
2018-03-15T08:34:21.783Z,9076.00
2018-03-15T08:35:21.796Z,9508.00
2018-03-15T08:36:21.802Z,9176.00
2018-03-15T08:37:21.818Z,9648.00
2018-03-15T08:38:21.816Z,9272.00
2018-03-15T08:39:21.824Z,9236.00
2018-03-15T08:40:21.832Z,9408.00
2018-03-15T08:41:21.842Z,8996.00
2018-03-15T08:42:21.853Z,8700.00
2018-03-15T08:43:21.859Z,8680.00
2018-03-15T08:44:21.864Z,8544.00
2018-03-15T08:45:21.876Z,8424.00
2018-03-15T08:46:21.883Z,8564.00
2018-03-15T08:47:21.889Z,8844.00
2018-03-15T08:48:21.902Z,9144.00
2018-03-15T08:49:21.904Z,9328.00
2018-03-15T08:50:21.914Z,9640.00
2018-03-15T08:51:21.916Z,9588.00
2018-03-15T08:52:21.973Z,9444.00
2018-03-15T08:53:21.934Z,9544.00
2018-03-15T08:54:21.941Z,9680.00
2018-03-15T08:55:21.952Z,9852.00
2018-03-15T08:56:21.955Z,10044.00
2018-03-15T08:57:21.966Z,10336.00
2018-03-15T08:58:21.975Z,10584.00
2018-03-15T08:59:21.982Z,10704.00
2018-03-15T09:00:22.032Z,10776.00
2018-03-15T09:01:22.005Z,10788.00
2018-03-15T09:02:22.006Z,10704.00
2018-03-15T09:03:22.018Z,10400.00
2018-03-15T09:04:22.028Z,10004.00
2018-03-15T09:05:22.030Z,9808.00
2018-03-15T09:06:22.038Z,9464.00
2018-03-15T09:07:22.046Z,9556.00
2018-03-15T09:08:22.056Z,8980.00
2018-03-15T09:09:22.065Z,9316.00
2018-03-15T09:10:22.080Z,9912.00
2018-03-15T09:11:22.080Z,10436.00
2018-03-15T09:12:22.085Z,10296.00
2018-03-15T09:13:22.098Z,10536.00
2018-03-15T09:14:22.109Z,10780.00
2018-03-15T09:15:22.111Z,10996.00
2018-03-15T09:16:22.126Z,11148.00
2018-03-15T09:17:22.140Z,11368.00
2018-03-15T09:18:22.145Z,11252.00
2018-03-15T09:19:22.146Z,10800.00
2018-03-15T09:20:22.152Z,10588.00
2018-03-15T09:21:22.162Z,10480.00
2018-03-15T09:22:22.173Z,10220.00
2018-03-15T09:23:22.178Z,9980.00
2018-03-15T09:24:22.198Z,9968.00
2018-03-15T09:25:22.194Z,9812.00
2018-03-15T09:26:22.202Z,9792.00
2018-03-15T09:27:22.216Z,10224.00
2018-03-15T09:28:22.218Z,10616.00
2018-03-15T09:29:22.229Z,11016.00
2018-03-15T09:30:22.238Z,11224.00
2018-03-15T09:31:22.244Z,12720.00
2018-03-15T09:32:22.256Z,12484.00
2018-03-15T09:33:22.266Z,13156.00
2018-03-15T09:34:22.273Z,13144.00
2018-03-15T09:35:22.278Z,12684.00
2018-03-15T09:36:22.286Z,12884.00
2018-03-15T09:37:22.294Z,12656.00
2018-03-15T09:38:22.304Z,12648.00
2018-03-15T09:39:22.320Z,9056.00
2018-03-15T09:40:22.325Z,12320.00
2018-03-15T09:41:22.342Z,12520.00
2018-03-15T09:42:22.386Z,12668.00
2018-03-15T09:43:22.346Z,12376.00
2018-03-15T09:44:22.359Z,12248.00
2018-03-15T09:45:22.389Z,12480.00
2018-03-15T09:46:22.371Z,12340.00
2018-03-15T09:47:22.386Z,12196.00
2018-03-15T09:48:22.387Z,12108.00
2018-03-15T09:49:22.402Z,12124.00
2018-03-15T09:50:22.407Z,12328.00
2018-03-15T09:51:22.429Z,12272.00
2018-03-15T09:52:22.431Z,11996.00
2018-03-15T09:53:22.433Z,11896.00
2018-03-15T09:54:22.440Z,11936.00
2018-03-15T09:55:22.449Z,11808.00
2018-03-15T09:56:22.466Z,11932.00
2018-03-15T09:57:22.467Z,12044.00
2018-03-15T09:58:22.496Z,11856.00
2018-03-15T09:59:22.486Z,12272.00
2018-03-15T10:00:22.497Z,12384.00
2018-03-15T10:01:22.505Z,12444.00
2018-03-15T10:02:22.512Z,12572.00
2018-03-15T10:03:22.527Z,13472.00
2018-03-15T10:04:22.530Z,13620.00
2018-03-15T10:05:22.539Z,13228.00
2018-03-15T10:06:22.548Z,12828.00
2018-03-15T10:07:22.555Z,12112.00
2018-03-15T10:08:22.567Z,11636.00
2018-03-15T10:09:22.574Z,12000.00
2018-03-15T10:10:22.581Z,12396.00
2018-03-15T10:11:22.596Z,12108.00
2018-03-15T10:12:22.603Z,12004.00
2018-03-15T10:13:22.609Z,12248.00
2018-03-15T10:14:22.620Z,12744.00
2018-03-15T10:15:22.630Z,13392.00
2018-03-15T10:16:22.674Z,13584.00
2018-03-15T10:17:22.645Z,13492.00
2018-03-15T10:18:22.673Z,13820.00
2018-03-15T10:19:22.663Z,14168.00
2018-03-15T10:20:22.678Z,14136.00
2018-03-15T10:21:22.680Z,14360.00
2018-03-15T10:22:22.708Z,14268.00
2018-03-15T10:23:22.704Z,14412.00
2018-03-15T10:24:22.709Z,14456.00
2018-03-15T10:25:26.388Z,14376.00
2018-03-15T10:26:22.729Z,14784.00
2018-03-15T10:27:22.738Z,15252.00
2018-03-15T10:28:22.761Z,15028.00
2018-03-15T10:29:22.760Z,15060.00
2018-03-15T10:30:22.773Z,14876.00
2018-03-15T10:31:22.772Z,15428.00
2018-03-15T10:32:22.782Z,16000.00
2018-03-15T10:33:22.791Z,16352.00
2018-03-15T10:34:22.803Z,16640.00
2018-03-15T10:35:22.838Z,16576.00
2018-03-15T10:36:22.820Z,16108.00
2018-03-15T10:37:22.834Z,16448.00
2018-03-15T10:38:22.838Z,16672.00
2018-03-15T10:39:22.869Z,16704.00
2018-03-15T10:40:22.858Z,16640.00
2018-03-15T10:41:22.879Z,16896.00
2018-03-15T10:42:22.880Z,16896.00
2018-03-15T10:43:22.889Z,15964.00
2018-03-15T10:44:22.899Z,15504.00
2018-03-15T10:45:22.911Z,15512.00
2018-03-15T10:46:22.924Z,15444.00
2018-03-15T10:47:22.966Z,15216.00
2018-03-15T10:48:22.936Z,15372.00
2018-03-15T10:49:22.947Z,15808.00
2018-03-15T10:50:22.952Z,15808.00
2018-03-15T10:51:23.005Z,15728.00
2018-03-15T10:52:22.978Z,15912.00
2018-03-15T10:53:23.004Z,16088.00
2018-03-15T10:54:23.008Z,16448.00
2018-03-15T10:55:23.033Z,16480.00
2018-03-15T10:56:23.013Z,16992.00
2018-03-15T10:57:23.029Z,17184.00
2018-03-15T10:58:23.046Z,17792.00
2018-03-15T10:59:23.065Z,18048.00
2018-03-15T11:00:23.055Z,18144.00
2018-03-15T11:01:23.078Z,18496.00
2018-03-15T11:02:23.077Z,18880.00
2018-03-15T11:03:23.085Z,19232.00
2018-03-15T11:04:23.099Z,19552.00
2018-03-15T11:05:23.107Z,19616.00
2018-03-15T11:06:23.125Z,19904.00
2018-03-15T11:07:23.142Z,20128.00
2018-03-15T11:08:23.142Z,20224.00
2018-03-15T11:09:23.149Z,20544.00
2018-03-15T11:10:23.159Z,20672.00
2018-03-15T11:11:23.168Z,20800.00
2018-03-15T11:12:23.194Z,21024.00
2018-03-15T11:13:23.192Z,20928.00
2018-03-15T11:14:23.201Z,21120.00
2018-03-15T11:15:23.210Z,20864.00
2018-03-15T11:16:23.225Z,20864.00
2018-03-15T11:17:23.235Z,21184.00
2018-03-15T11:18:23.248Z,22112.00
2018-03-15T11:19:23.256Z,20960.00
2018-03-15T11:20:23.280Z,20832.00
2018-03-15T11:21:23.296Z,20256.00
2018-03-15T11:22:23.292Z,19232.00
2018-03-15T11:23:23.304Z,19008.00
2018-03-15T11:24:23.316Z,18976.00
2018-03-15T11:25:23.327Z,19168.00
2018-03-15T11:26:23.345Z,19488.00
2018-03-15T11:27:23.358Z,19648.00
2018-03-15T11:28:23.386Z,19744.00
2018-03-15T11:29:23.374Z,19776.00
2018-03-15T11:30:23.385Z,19808.00
2018-03-15T11:31:23.397Z,20736.00
2018-03-15T11:32:23.409Z,22624.00
2018-03-15T11:33:23.418Z,23872.00
2018-03-15T11:34:23.430Z,24832.00
2018-03-15T11:35:23.488Z,25088.00
2018-03-15T11:36:23.457Z,24992.00
2018-03-15T11:37:23.474Z,25696.00
2018-03-15T11:38:23.476Z,24640.00
2018-03-15T11:39:23.490Z,24704.00
2018-03-15T11:40:23.531Z,25728.00
2018-03-15T11:41:23.519Z,25888.00
2018-03-15T11:42:23.523Z,24480.00
2018-03-15T11:43:23.534Z,24000.00
2018-03-15T11:44:23.550Z,22784.00
2018-03-15T11:45:23.565Z,22048.00
2018-03-15T11:46:23.570Z,20896.00
2018-03-15T11:47:23.580Z,19072.00
2018-03-15T11:48:23.600Z,18400.00
2018-03-15T11:49:23.605Z,17856.00
2018-03-15T11:50:23.617Z,17120.00
2018-03-15T11:51:23.634Z,16256.00
2018-03-15T11:52:23.643Z,15716.00
2018-03-15T11:53:23.654Z,14984.00
2018-03-15T11:54:23.667Z,14324.00
2018-03-15T11:55:23.675Z,14544.00
2018-03-15T11:56:23.708Z,15556.00
2018-03-15T11:57:23.700Z,17536.00
2018-03-15T11:58:23.713Z,19264.00
2018-03-15T11:59:23.721Z,19904.00
2018-03-15T12:00:23.733Z,20032.00
2018-03-15T12:01:23.756Z,20448.00
2018-03-15T12:02:23.765Z,20928.00
2018-03-15T12:03:23.767Z,20928.00
2018-03-15T12:04:23.784Z,20736.00
2018-03-15T12:05:23.791Z,19488.00
2018-03-15T12:06:23.802Z,19552.00
2018-03-15T12:07:23.814Z,18976.00
2018-03-15T12:08:23.831Z,17920.00
2018-03-15T12:09:23.851Z,17120.00
2018-03-15T12:10:23.846Z,16992.00
2018-03-15T12:11:23.862Z,17344.00
2018-03-15T12:12:23.867Z,18144.00
2018-03-15T12:13:23.881Z,18688.00
2018-03-15T12:14:23.896Z,19104.00
2018-03-15T12:15:23.899Z,18912.00
2018-03-15T12:16:23.910Z,18784.00
2018-03-15T12:17:23.921Z,19232.00
2018-03-15T12:18:23.940Z,18784.00
2018-03-15T12:19:23.944Z,18016.00
2018-03-15T12:20:23.965Z,16576.00
2018-03-15T12:21:23.966Z,15920.00
2018-03-15T12:22:23.981Z,15460.00
2018-03-15T12:23:23.995Z,15188.00
2018-03-15T12:24:23.998Z,15424.00
2018-03-15T12:25:24.021Z,15996.00
2018-03-15T12:26:24.043Z,15996.00
2018-03-15T12:27:24.031Z,15788.00
2018-03-15T12:28:24.043Z,15540.00
2018-03-15T12:29:24.062Z,15556.00
2018-03-15T12:30:24.064Z,14608.00